European Causeway — C6RG7 — position and weather

sailwx.info

Track history (hours):
 
Tides and Currents Weather Stations Pressure Air Temp Water Temp Dewpoint Dewpoint Depression Visibility Wind Speed Wind Dir Waves Ship Positions

European Causeway

Operator: P & O Irish Sea

Last reported at 2015-Jul-06 08:33 UTC. Time now 2015-Jul-06 09:11 UTC.
Position N 54°58' W 005°01'.

Length 165 m; draft 5.5 m.

Type: Passenger vessel. MMSI: 311027000.

Date/timePositionNaut miles runAvg speedWind from/ knotsBaromVisibWave heightAir tempDewpointWater temp
2015-Jul-06 08:33N 54°58' W 005°01'1110.8
2015-Jul-06 07:32N 54°58' W 005°20'1717.8
2015-Jul-06 06:34N 54°51' W 005°48'0 0.1
2015-Jul-06 05:33N 54°51' W 005°48'2 2.0
2015-Jul-06 04:34N 54°52' W 005°46'1918.9
2015-Jul-06 03:33N 55°01' W 005°16'9 9.2
2015-Jul-06 02:34N 54°58' W 005°01'0 0.0
2015-Jul-06 01:33N 54°58' W 005°01'0 0.0
2015-Jul-06 00:33N 54°58' W 005°01'5 4.7
2015-Jul-05 23:28N 55°01' W 005°07'1618.0
2015-Jul-05 22:33N 54°55' W 005°33'9 8.6
2015-Jul-05 21:28N 54°51' W 005°48'2 1.7
2015-Jul-05 20:33N 54°52' W 005°46'1818.1
2015-Jul-05 19:33N 54°60' W 005°18'10 9.2
2015-Jul-05 18:28N 54°58' W 005°01'0 0.0
2015-Jul-05 17:32N 54°58' W 005°01'1111.4
2015-Jul-05 16:33N 54°58' W 005°20'1716.8
2015-Jul-05 15:33N 54°51' W 005°48'1 0.6
2015-Jul-05 14:31N 54°51' W 005°48'1313.4
2015-Jul-05 13:33N 54°57' W 005°28'1515.2
2015-Jul-05 12:33N 54°58' W 005°02'1 0.7
2015-Jul-05 11:33N 54°58' W 005°01'1413.7
2015-Jul-05 10:34N 54°57' W 005°25'1414.4
2015-Jul-05 09:34N 54°51' W 005°48'0 0.0
2015-Jul-05 08:33N 54°51' W 005°48'1010.2
2015-Jul-05 07:33N 54°56' W 005°33'1715.8
2015-Jul-05 06:28N 54°59' W 005°03'2 2.0
2015-Jul-05 05:33N 54°58' W 005°01'0 0.0
2015-Jul-05 04:33N 54°58' W 005°01'0 0.0
2015-Jul-05 03:30N 54°58' W 005°01'0 0.0
2015-Jul-05 02:33N 54°58' W 005°01'0 0.0
2015-Jul-05 01:33N 54°58' W 005°01'0 0.0
2015-Jul-05 00:30N 54°58' W 005°01'0 0.0
2015-Jul-04 23:30N 54°58' W 005°01'0 0.0
2015-Jul-04 22:30N 54°58' W 005°01'0 0.0
2015-Jul-04 21:30N 54°58' W 005°01'3 2.7
2015-Jul-04 20:33N 54°60' W 005°04'1616.0
2015-Jul-04 19:33N 54°55' W 005°30'1110.8
2015-Jul-04 18:33N 54°51' W 005°48'0 0.0
2015-Jul-04 17:33N 54°51' W 005°48'1111.6
2015-Jul-04 16:34N 54°57' W 005°31'1616.1
2015-Jul-04 15:34N 54°59' W 005°03'2 2.0
2015-Jul-04 14:28N 54°58' W 005°01'9 9.8
2015-Jul-04 13:33N 54°60' W 005°16'1918.4
2015-Jul-04 12:33N 54°52' W 005°46'2 1.8
2015-Jul-04 11:31N 54°51' W 005°48'1313.8
2015-Jul-04 10:34N 54°57' W 005°28'1514.9
2015-Jul-04 09:33N 54°58' W 005°02'1 0.8
2015-Jul-04 08:33N 54°58' W 005°01'9 8.7
2015-Jul-04 07:33N 55°00' W 005°15'1818.5
2015-Jul-04 06:34N 54°53' W 005°45'3 2.6
2015-Jul-04 05:33N 54°51' W 005°48'5 5.1
2015-Jul-04 04:34N 54°54' W 005°40'1818.0
2015-Jul-04 03:33N 55°02' W 005°13'8 8.0
2015-Jul-04 02:33N 54°58' W 005°01'0 0.0
2015-Jul-04 01:33N 54°58' W 005°01'5 4.7
2015-Jul-04 00:27N 55°02' W 005°07'1618.2
2015-Jul-03 23:33N 54°55' W 005°33'10 9.6
2015-Jul-03 22:33N 54°51' W 005°48'0 0.0
2015-Jul-03 21:33N 54°51' W 005°48'2 2.2
2015-Jul-03 20:34N 54°52' W 005°45'1918.5
2015-Jul-03 19:34N 55°00' W 005°16'9 8.5
2015-Jul-03 18:31N 54°58' W 005°01'0 0.0
2015-Jul-03 17:34N 54°58' W 005°01'10 9.9
2015-Jul-03 16:33N 54°59' W 005°18'1818.3
2015-Jul-03 15:33N 54°52' W 005°47'1 0.9
2015-Jul-03 14:33N 54°51' W 005°48'1313.0
2015-Jul-03 13:33N 54°57' W 005°28'1613.4
2015-Jul-03 12:24N 54°58' W 005°01'0 0.0
2015-Jul-03 11:33N 54°58' W 005°01'9 9.1
2015-Jul-03 10:33N 54°59' W 005°16'1918.2
2015-Jul-03 09:32N 54°52' W 005°47'1 1.5
2015-Jul-03 08:33N 54°51' W 005°48'1313.2
2015-Jul-03 07:34N 54°57' W 005°28'1514.6
2015-Jul-03 06:33N 54°59' W 005°02'1 1.3
2015-Jul-03 05:34N 54°58' W 005°01'5 5.1
2015-Jul-03 04:33N 55°01' W 005°07'1918.7
2015-Jul-03 03:33N 54°54' W 005°37'7 7.2
2015-Jul-03 02:33N 54°51' W 005°48'0 0.0
2015-Jul-03 01:33N 54°51' W 005°48'1 0.7
2015-Jul-03 00:33N 54°51' W 005°48'1818.3
2015-Jul-02 23:33N 54°60' W 005°19'1110.3
2015-Jul-02 22:31N 54°58' W 005°01'0 0.0
2015-Jul-02 21:31N 54°58' W 005°01'4 3.7
2015-Jul-02 20:33N 55°01' W 005°05'1717.4
2015-Jul-02 19:33N 54°55' W 005°33'9 8.8
2015-Jul-02 18:29N 54°51' W 005°48'0 0.0
2015-Jul-02 17:27N 54°51' W 005°48'1415.4
2015-Jul-02 16:34N 54°58' W 005°27'1514.8
2015-Jul-02 15:33N 54°58' W 005°01'0 0.2
2015-Jul-02 14:30N 54°58' W 005°01'1212.9
2015-Jul-02 13:34N 54°58' W 005°22'1715.9
2015-Jul-02 12:31N 54°51' W 005°48'0 0.0
2015-Jul-02 11:31N 54°51' W 005°48'1212.2
2015-Jul-02 10:34N 54°58' W 005°31'1616.0
2015-Jul-02 09:32N 54°59' W 005°03'2 1.6
2015-Jul-02 08:33N 54°58' W 005°01'9 8.6
2015-Jul-02 07:33N 54°59' W 005°16'1919.0
2015-Jul-02 06:33N 54°52' W 005°46'1 1.4
2015-Jul-02 05:33N 54°51' W 005°48'8 8.3
2015-Jul-02 04:33N 54°55' W 005°36'1918.1
2015-Jul-02 03:29N 54°59' W 005°03'2 1.6
2015-Jul-02 02:27N 54°58' W 005°01'0 0.0
2015-Jul-02 01:33N 54°58' W 005°01'6 5.5
2015-Jul-02 00:30N 55°01' W 005°08'1818.7
2015-Jul-01 23:33N 54°54' W 005°36'7 7.4
2015-Jul-01 22:33N 54°51' W 005°48'0 0.0
2015-Jul-01 21:33N 54°51' W 005°48'3 3.4
2015-Jul-01 20:33N 54°53' W 005°43'1818.4
2015-Jul-01 19:33N 55°01' W 005°14'8 8.1
2015-Jul-01 18:32N 54°58' W 005°01'0 0.0
2015-Jul-01 17:33N 54°58' W 005°01'1110.5
2015-Jul-01 16:33N 54°59' W 005°19'1817.8
2015-Jul-01 15:33N 54°51' W 005°48'0 0.1
2015-Jul-01 14:34N 54°51' W 005°48'1212.4
2015-Jul-01 13:34N 54°58' W 005°30'1615.6
2015-Jul-01 12:33N 54°59' W 005°03'1 1.4
2015-Jul-01 11:33N 54°58' W 005°01'1010.1
2015-Jul-01 10:33N 54°59' W 005°18'1818.2
2015-Jul-01 09:33N 54°52' W 005°47'1 1.0
2015-Jul-01 08:33N 54°51' W 005°48'1212.5
2015-Jul-01 07:34N 54°57' W 005°29'1514.9
2015-Jul-01 06:32N 54°59' W 005°02'1 1.3
2015-Jul-01 05:33N 54°58' W 005°01'5 4.9
2015-Jul-01 04:29N 55°02' W 005°07'1718.6
2015-Jul-01 03:33N 54°55' W 005°35'9 8.5
2015-Jul-01 02:33N 54°51' W 005°48'0 0.0
2015-Jul-01 01:33N 54°51' W 005°48'2 1.9
2015-Jul-01 00:33N 54°53' W 005°47'1918.9
2015-Jun-30 23:33N 55°00' W 005°16'9 9.2
2015-Jun-30 22:33N 54°58' W 005°01'0 0.0
2015-Jun-30 21:17N 54°58' W 005°01'5 6.6
2015-Jun-30 20:29N 55°01' W 005°07'1617.6
2015-Jun-30 19:33N 54°55' W 005°33'9 8.7
2015-Jun-30 18:30N 54°51' W 005°48'0 0.0
2015-Jun-30 17:33N 54°51' W 005°48'1616.1
2015-Jun-30 16:33N 54°59' W 005°23'1312.8
2015-Jun-30 15:33N 54°58' W 005°01'0 0.1
2015-Jun-30 14:33N 54°58' W 005°01'1212.4
2015-Jun-30 13:34N 54°57' W 005°23'1615.8
2015-Jun-30 12:34N 54°51' W 005°48'0 0.1
2015-Jun-30 11:33N 54°51' W 005°48'1312.7
2015-Jun-30 10:33N 54°57' W 005°29'1515.4
2015-Jun-30 09:33N 54°59' W 005°02'1 1.3
2015-Jun-30 08:31N 54°58' W 005°01'1010.1
2015-Jun-30 07:34N 54°59' W 005°18'1918.4
2015-Jun-30 06:32N 54°51' W 005°48'0 0.1
2015-Jun-30 05:33N 54°51' W 005°48'3 2.5
2015-Jun-30 04:33N 54°53' W 005°45'1918.7
2015-Jun-30 03:32N 55°01' W 005°14'8 4.1
2015-Jun-30 01:30N 54°58' W 005°01'6 5.4
2015-Jun-30 00:27N 55°02' W 005°08'1718.9
2015-Jun-29 23:33N 54°54' W 005°35'8 8.2
2015-Jun-29 22:33N 54°51' W 005°48'0 0.0
2015-Jun-29 21:34N 54°51' W 005°48'3 3.5
2015-Jun-29 20:33N 54°54' W 005°45'1818.2
2015-Jun-29 19:33N 55°00' W 005°15'8 3.9
2015-Jun-29 17:25N 54°58' W 005°01'1112.7
2015-Jun-29 16:33N 54°58' W 005°20'1717.2
2015-Jun-29 15:32N 54°51' W 005°48'0 0.1
2015-Jun-29 14:30N 54°51' W 005°48'1313.5
2015-Jun-29 13:33N 54°57' W 005°29'1515.2
2015-Jun-29 12:33N 54°59' W 005°03'1 1.4
2015-Jun-29 11:33N 54°58' W 005°01'1212.0
2015-Jun-29 10:33N 54°58' W 005°22'1616.4
2015-Jun-29 09:33N 54°51' W 005°48'0 0.1
2015-Jun-29 08:33N 54°51' W 005°48'1212.3
2015-Jun-29 07:33N 54°57' W 005°29'1615.2
2015-Jun-29 06:32N 54°59' W 005°02'1 1.3
2015-Jun-29 05:33N 54°58' W 005°01'5 4.4
2015-Jun-29 04:26N 55°01' W 005°06'1718.6
2015-Jun-29 03:33N 54°55' W 005°33'10 9.6
2015-Jun-29 02:33N 54°51' W 005°48'0 0.0
2015-Jun-29 01:33N 54°51' W 005°48'0 0.0
2015-Jun-29 00:33N 54°51' W 005°48'2 1.5
2015-Jun-28 23:34N 54°52' W 005°47'1918.5
2015-Jun-28 22:34N 55°01' W 005°18'8 4.1
2015-Jun-28 20:32N 55°00' W 005°04'1717.3
2015-Jun-28 19:32N 54°55' W 005°32'10 4.8
2015-Jun-28 17:31N 54°51' W 005°48'1111.6
2015-Jun-28 16:32N 54°56' W 005°31'1616.2
2015-Jun-28 15:33N 54°59' W 005°03'2 2.2
2015-Jun-28 14:32N 54°58' W 005°01'5 4.6
2015-Jun-28 13:30N 55°02' W 005°06'1818.3
2015-Jun-28 12:32N 54°55' W 005°34'9 8.9
2015-Jun-28 11:33N 54°51' W 005°48'0 0.0
2015-Jun-28 10:32N 54°51' W 005°48'0 0.0
2015-Jun-28 09:32N 54°51' W 005°48'0 0.0
2015-Jun-28 08:33N 54°51' W 005°48'9 9.4
2015-Jun-28 07:34N 54°55' W 005°34'1817.3
2015-Jun-28 06:30N 54°59' W 005°02'1 1.4
2015-Jun-28 05:33N 54°58' W 005°01'0 0.0
2015-Jun-28 04:33N 54°58' W 005°01'0 0.0
2015-Jun-28 03:31N 54°58' W 005°01'0 0.0
2015-Jun-28 02:32N 54°58' W 005°01'0 0.0
2015-Jun-28 01:33N 54°58' W 005°01'0 0.0
2015-Jun-28 00:29N 54°58' W 005°01'0 0.0
2015-Jun-27 23:33N 54°58' W 005°01'0 0.0
2015-Jun-27 22:33N 54°58' W 005°01'0 0.0
2015-Jun-27 21:33N 54°58' W 005°01'1 0.7
2015-Jun-27 20:33N 54°58' W 005°02'1515.4
2015-Jun-27 19:33N 54°56' W 005°28'1211.6
2015-Jun-27 18:29N 54°51' W 005°48'0 0.0
2015-Jun-27 17:33N 54°51' W 005°48'1514.5
2015-Jun-27 16:32N 54°58' W 005°26'1413.9
2015-Jun-27 15:31N 54°58' W 005°01'0 0.0
2015-Jun-27 14:33N 54°58' W 005°01'1110.6
2015-Jun-27 13:33N 54°59' W 005°19'1817.9
2015-Jun-27 12:32N 54°51' W 005°48'0 0.1
2015-Jun-27 11:33N 54°51' W 005°48'1312.8
2015-Jun-27 10:33N 54°58' W 005°30'1615.9
2015-Jun-27 09:33N 54°59' W 005°02'1 1.1
2015-Jun-27 08:32N 54°58' W 005°01'9 9.6
2015-Jun-27 07:33N 54°59' W 005°17'1918.7
2015-Jun-27 06:33N 54°52' W 005°47'1 1.2
2015-Jun-27 05:33N 54°51' W 005°48'3 3.2
2015-Jun-27 04:33N 54°53' W 005°43'1918.8
2015-Jun-27 03:33N 55°01' W 005°14'8 8.1
2015-Jun-27 02:33N 54°58' W 005°01'0 0.0
2015-Jun-27 01:33N 54°58' W 005°01'5 4.6
2015-Jun-27 00:22N 55°02' W 005°08'1619.5
2015-Jun-26 23:33N 54°55' W 005°33'10 9.6
2015-Jun-26 22:33N 54°51' W 005°48'0 0.0
2015-Jun-26 21:32N 54°51' W 005°48'2 2.0
2015-Jun-26 20:34N 54°53' W 005°46'1918.8
2015-Jun-26 19:33N 55°00' W 005°16'9 7.5
2015-Jun-26 18:21N 54°58' W 005°01'0 0.0
2015-Jun-26 17:33N 54°58' W 005°01'1111.0
2015-Jun-26 16:33N 54°58' W 005°20'1717.4
2015-Jun-26 15:34N 54°51' W 005°48'0 0.1
2015-Jun-26 14:34N 54°51' W 005°48'1716.8
2015-Jun-26 13:33N 54°59' W 005°22'1212.2
2015-Jun-26 12:33N 54°58' W 005°01'0 0.0
2015-Jun-26 11:33N 54°58' W 005°01'1211.2
2015-Jun-26 10:31N 54°58' W 005°21'1717.4
2015-Jun-26 09:33N 54°51' W 005°48'  
Track history (hours):
 
Tides and Currents Weather Stations Pressure Air Temp Water Temp Dewpoint Dewpoint Depression Visibility Wind Speed Wind Dir Waves Ship Positions

European Causeway

Operator: P & O Irish Sea

Last reported at 2015-Jul-06 08:33 UTC. Time now 2015-Jul-06 09:11 UTC.
Position N 54°58' W 005°01'.

Length 165 m; draft 5.5 m.

Type: Passenger vessel. MMSI: 311027000.

Date/timePositionNaut miles runAvg speedWind from/ knotsBaromVisibWave heightAir tempDewpointWater temp
2015-Jul-06 08:33N 54°58' W 005°01'1110.8
2015-Jul-06 07:32N 54°58' W 005°20'1717.8
2015-Jul-06 06:34N 54°51' W 005°48'0 0.1
2015-Jul-06 05:33N 54°51' W 005°48'2 2.0
2015-Jul-06 04:34N 54°52' W 005°46'1918.9
2015-Jul-06 03:33N 55°01' W 005°16'9 9.2
2015-Jul-06 02:34N 54°58' W 005°01'0 0.0
2015-Jul-06 01:33N 54°58' W 005°01'0 0.0
2015-Jul-06 00:33N 54°58' W 005°01'5 4.7
2015-Jul-05 23:28N 55°01' W 005°07'1618.0
2015-Jul-05 22:33N 54°55' W 005°33'9 8.6
2015-Jul-05 21:28N 54°51' W 005°48'2 1.7
2015-Jul-05 20:33N 54°52' W 005°46'1818.1
2015-Jul-05 19:33N 54°60' W 005°18'10 9.2
2015-Jul-05 18:28N 54°58' W 005°01'0 0.0
2015-Jul-05 17:32N 54°58' W 005°01'1111.4
2015-Jul-05 16:33N 54°58' W 005°20'1716.8
2015-Jul-05 15:33N 54°51' W 005°48'1 0.6
2015-Jul-05 14:31N 54°51' W 005°48'1313.4
2015-Jul-05 13:33N 54°57' W 005°28'1515.2
2015-Jul-05 12:33N 54°58' W 005°02'1 0.7
2015-Jul-05 11:33N 54°58' W 005°01'1413.7
2015-Jul-05 10:34N 54°57' W 005°25'1414.4
2015-Jul-05 09:34N 54°51' W 005°48'0 0.0
2015-Jul-05 08:33N 54°51' W 005°48'1010.2
2015-Jul-05 07:33N 54°56' W 005°33'1715.8
2015-Jul-05 06:28N 54°59' W 005°03'2 2.0
2015-Jul-05 05:33N 54°58' W 005°01'0 0.0
2015-Jul-05 04:33N 54°58' W 005°01'0 0.0
2015-Jul-05 03:30N 54°58' W 005°01'0 0.0
2015-Jul-05 02:33N 54°58' W 005°01'0 0.0
2015-Jul-05 01:33N 54°58' W 005°01'0 0.0
2015-Jul-05 00:30N 54°58' W 005°01'0 0.0
2015-Jul-04 23:30N 54°58' W 005°01'0 0.0
2015-Jul-04 22:30N 54°58' W 005°01'0 0.0
2015-Jul-04 21:30N 54°58' W 005°01'3 2.7
2015-Jul-04 20:33N 54°60' W 005°04'1616.0
2015-Jul-04 19:33N 54°55' W 005°30'1110.8
2015-Jul-04 18:33N 54°51' W 005°48'0 0.0
2015-Jul-04 17:33N 54°51' W 005°48'1111.6
2015-Jul-04 16:34N 54°57' W 005°31'1616.1
2015-Jul-04 15:34N 54°59' W 005°03'2 2.0
2015-Jul-04 14:28N 54°58' W 005°01'9 9.8
2015-Jul-04 13:33N 54°60' W 005°16'1918.4
2015-Jul-04 12:33N 54°52' W 005°46'2 1.8
2015-Jul-04 11:31N 54°51' W 005°48'1313.8
2015-Jul-04 10:34N 54°57' W 005°28'1514.9
2015-Jul-04 09:33N 54°58' W 005°02'1 0.8
2015-Jul-04 08:33N 54°58' W 005°01'9 8.7
2015-Jul-04 07:33N 55°00' W 005°15'1818.5
2015-Jul-04 06:34N 54°53' W 005°45'3 2.6
2015-Jul-04 05:33N 54°51' W 005°48'5 5.1
2015-Jul-04 04:34N 54°54' W 005°40'1818.0
2015-Jul-04 03:33N 55°02' W 005°13'8 8.0
2015-Jul-04 02:33N 54°58' W 005°01'0 0.0
2015-Jul-04 01:33N 54°58' W 005°01'5 4.7
2015-Jul-04 00:27N 55°02' W 005°07'1618.2
2015-Jul-03 23:33N 54°55' W 005°33'10 9.6
2015-Jul-03 22:33N 54°51' W 005°48'0 0.0
2015-Jul-03 21:33N 54°51' W 005°48'2 2.2
2015-Jul-03 20:34N 54°52' W 005°45'1918.5
2015-Jul-03 19:34N 55°00' W 005°16'9 8.5
2015-Jul-03 18:31N 54°58' W 005°01'0 0.0
2015-Jul-03 17:34N 54°58' W 005°01'10 9.9
2015-Jul-03 16:33N 54°59' W 005°18'1818.3
2015-Jul-03 15:33N 54°52' W 005°47'1 0.9
2015-Jul-03 14:33N 54°51' W 005°48'1313.0
2015-Jul-03 13:33N 54°57' W 005°28'1613.4
2015-Jul-03 12:24N 54°58' W 005°01'0 0.0
2015-Jul-03 11:33N 54°58' W 005°01'9 9.1
2015-Jul-03 10:33N 54°59' W 005°16'1918.2
2015-Jul-03 09:32N 54°52' W 005°47'1 1.5
2015-Jul-03 08:33N 54°51' W 005°48'1313.2
2015-Jul-03 07:34N 54°57' W 005°28'1514.6
2015-Jul-03 06:33N 54°59' W 005°02'1 1.3
2015-Jul-03 05:34N 54°58' W 005°01'5 5.1
2015-Jul-03 04:33N 55°01' W 005°07'1918.7
2015-Jul-03 03:33N 54°54' W 005°37'7 7.2
2015-Jul-03 02:33N 54°51' W 005°48'0 0.0
2015-Jul-03 01:33N 54°51' W 005°48'1 0.7
2015-Jul-03 00:33N 54°51' W 005°48'1818.3
2015-Jul-02 23:33N 54°60' W 005°19'1110.3
2015-Jul-02 22:31N 54°58' W 005°01'0 0.0
2015-Jul-02 21:31N 54°58' W 005°01'4 3.7
2015-Jul-02 20:33N 55°01' W 005°05'1717.4
2015-Jul-02 19:33N 54°55' W 005°33'9 8.8
2015-Jul-02 18:29N 54°51' W 005°48'0 0.0
2015-Jul-02 17:27N 54°51' W 005°48'1415.4
2015-Jul-02 16:34N 54°58' W 005°27'1514.8
2015-Jul-02 15:33N 54°58' W 005°01'0 0.2
2015-Jul-02 14:30N 54°58' W 005°01'1212.9
2015-Jul-02 13:34N 54°58' W 005°22'1715.9
2015-Jul-02 12:31N 54°51' W 005°48'0 0.0
2015-Jul-02 11:31N 54°51' W 005°48'1212.2
2015-Jul-02 10:34N 54°58' W 005°31'1616.0
2015-Jul-02 09:32N 54°59' W 005°03'2 1.6
2015-Jul-02 08:33N 54°58' W 005°01'9 8.6
2015-Jul-02 07:33N 54°59' W 005°16'1919.0
2015-Jul-02 06:33N 54°52' W 005°46'1 1.4
2015-Jul-02 05:33N 54°51' W 005°48'8 8.3
2015-Jul-02 04:33N 54°55' W 005°36'1918.1
2015-Jul-02 03:29N 54°59' W 005°03'2 1.6
2015-Jul-02 02:27N 54°58' W 005°01'0 0.0
2015-Jul-02 01:33N 54°58' W 005°01'6 5.5
2015-Jul-02 00:30N 55°01' W 005°08'1818.7
2015-Jul-01 23:33N 54°54' W 005°36'7 7.4
2015-Jul-01 22:33N 54°51' W 005°48'0 0.0
2015-Jul-01 21:33N 54°51' W 005°48'3 3.4
2015-Jul-01 20:33N 54°53' W 005°43'1818.4
2015-Jul-01 19:33N 55°01' W 005°14'8 8.1
2015-Jul-01 18:32N 54°58' W 005°01'0 0.0
2015-Jul-01 17:33N 54°58' W 005°01'1110.5
2015-Jul-01 16:33N 54°59' W 005°19'1817.8
2015-Jul-01 15:33N 54°51' W 005°48'0 0.1
2015-Jul-01 14:34N 54°51' W 005°48'1212.4
2015-Jul-01 13:34N 54°58' W 005°30'1615.6
2015-Jul-01 12:33N 54°59' W 005°03'1 1.4
2015-Jul-01 11:33N 54°58' W 005°01'1010.1
2015-Jul-01 10:33N 54°59' W 005°18'1818.2
2015-Jul-01 09:33N 54°52' W 005°47'1 1.0
2015-Jul-01 08:33N 54°51' W 005°48'1212.5
2015-Jul-01 07:34N 54°57' W 005°29'1514.9
2015-Jul-01 06:32N 54°59' W 005°02'1 1.3
2015-Jul-01 05:33N 54°58' W 005°01'5 4.9
2015-Jul-01 04:29N 55°02' W 005°07'1718.6
2015-Jul-01 03:33N 54°55' W 005°35'9 8.5
2015-Jul-01 02:33N 54°51' W 005°48'0 0.0
2015-Jul-01 01:33N 54°51' W 005°48'2 1.9
2015-Jul-01 00:33N 54°53' W 005°47'1918.9
2015-Jun-30 23:33N 55°00' W 005°16'9 9.2
2015-Jun-30 22:33N 54°58' W 005°01'0 0.0
2015-Jun-30 21:17N 54°58' W 005°01'5 6.6
2015-Jun-30 20:29N 55°01' W 005°07'1617.6
2015-Jun-30 19:33N 54°55' W 005°33'9 8.7
2015-Jun-30 18:30N 54°51' W 005°48'0 0.0
2015-Jun-30 17:33N 54°51' W 005°48'1616.1
2015-Jun-30 16:33N 54°59' W 005°23'1312.8
2015-Jun-30 15:33N 54°58' W 005°01'0 0.1
2015-Jun-30 14:33N 54°58' W 005°01'1212.4
2015-Jun-30 13:34N 54°57' W 005°23'1615.8
2015-Jun-30 12:34N 54°51' W 005°48'0 0.1
2015-Jun-30 11:33N 54°51' W 005°48'1312.7
2015-Jun-30 10:33N 54°57' W 005°29'1515.4
2015-Jun-30 09:33N 54°59' W 005°02'1 1.3
2015-Jun-30 08:31N 54°58' W 005°01'1010.1
2015-Jun-30 07:34N 54°59' W 005°18'1918.4
2015-Jun-30 06:32N 54°51' W 005°48'0 0.1
2015-Jun-30 05:33N 54°51' W 005°48'3 2.5
2015-Jun-30 04:33N 54°53' W 005°45'1918.7
2015-Jun-30 03:32N 55°01' W 005°14'8 4.1
2015-Jun-30 01:30N 54°58' W 005°01'6 5.4
2015-Jun-30 00:27N 55°02' W 005°08'1718.9
2015-Jun-29 23:33N 54°54' W 005°35'8 8.2
2015-Jun-29 22:33N 54°51' W 005°48'0 0.0
2015-Jun-29 21:34N 54°51' W 005°48'3 3.5
2015-Jun-29 20:33N 54°54' W 005°45'1818.2
2015-Jun-29 19:33N 55°00' W 005°15'8 3.9
2015-Jun-29 17:25N 54°58' W 005°01'1112.7
2015-Jun-29 16:33N 54°58' W 005°20'1717.2
2015-Jun-29 15:32N 54°51' W 005°48'0 0.1
2015-Jun-29 14:30N 54°51' W 005°48'1313.5
2015-Jun-29 13:33N 54°57' W 005°29'1515.2
2015-Jun-29 12:33N 54°59' W 005°03'1 1.4
2015-Jun-29 11:33N 54°58' W 005°01'1212.0
2015-Jun-29 10:33N 54°58' W 005°22'1616.4
2015-Jun-29 09:33N 54°51' W 005°48'0 0.1
2015-Jun-29 08:33N 54°51' W 005°48'1212.3
2015-Jun-29 07:33N 54°57' W 005°29'1615.2
2015-Jun-29 06:32N 54°59' W 005°02'1 1.3
2015-Jun-29 05:33N 54°58' W 005°01'5 4.4
2015-Jun-29 04:26N 55°01' W 005°06'1718.6
2015-Jun-29 03:33N 54°55' W 005°33'10 9.6
2015-Jun-29 02:33N 54°51' W 005°48'0 0.0
2015-Jun-29 01:33N 54°51' W 005°48'0 0.0
2015-Jun-29 00:33N 54°51' W 005°48'2 1.5
2015-Jun-28 23:34N 54°52' W 005°47'1918.5
2015-Jun-28 22:34N 55°01' W 005°18'8 4.1
2015-Jun-28 20:32N 55°00' W 005°04'1717.3
2015-Jun-28 19:32N 54°55' W 005°32'10 4.8
2015-Jun-28 17:31N 54°51' W 005°48'1111.6
2015-Jun-28 16:32N 54°56' W 005°31'1616.2
2015-Jun-28 15:33N 54°59' W 005°03'2 2.2
2015-Jun-28 14:32N 54°58' W 005°01'5 4.6
2015-Jun-28 13:30N 55°02' W 005°06'1818.3
2015-Jun-28 12:32N 54°55' W 005°34'9 8.9
2015-Jun-28 11:33N 54°51' W 005°48'0 0.0
2015-Jun-28 10:32N 54°51' W 005°48'0 0.0
2015-Jun-28 09:32N 54°51' W 005°48'0 0.0
2015-Jun-28 08:33N 54°51' W 005°48'9 9.4
2015-Jun-28 07:34N 54°55' W 005°34'1817.3
2015-Jun-28 06:30N 54°59' W 005°02'1 1.4
2015-Jun-28 05:33N 54°58' W 005°01'0 0.0
2015-Jun-28 04:33N 54°58' W 005°01'0 0.0
2015-Jun-28 03:31N 54°58' W 005°01'0 0.0
2015-Jun-28 02:32N 54°58' W 005°01'0 0.0
2015-Jun-28 01:33N 54°58' W 005°01'0 0.0
2015-Jun-28 00:29N 54°58' W 005°01'0 0.0
2015-Jun-27 23:33N 54°58' W 005°01'0 0.0
2015-Jun-27 22:33N 54°58' W 005°01'0 0.0
2015-Jun-27 21:33N 54°58' W 005°01'1 0.7
2015-Jun-27 20:33N 54°58' W 005°02'1515.4
2015-Jun-27 19:33N 54°56' W 005°28'1211.6
2015-Jun-27 18:29N 54°51' W 005°48'0 0.0
2015-Jun-27 17:33N 54°51' W 005°48'1514.5
2015-Jun-27 16:32N 54°58' W 005°26'1413.9
2015-Jun-27 15:31N 54°58' W 005°01'0 0.0
2015-Jun-27 14:33N 54°58' W 005°01'1110.6
2015-Jun-27 13:33N 54°59' W 005°19'1817.9
2015-Jun-27 12:32N 54°51' W 005°48'0 0.1
2015-Jun-27 11:33N 54°51' W 005°48'1312.8
2015-Jun-27 10:33N 54°58' W 005°30'1615.9
2015-Jun-27 09:33N 54°59' W 005°02'1 1.1
2015-Jun-27 08:32N 54°58' W 005°01'9 9.6
2015-Jun-27 07:33N 54°59' W 005°17'1918.7
2015-Jun-27 06:33N 54°52' W 005°47'1 1.2
2015-Jun-27 05:33N 54°51' W 005°48'3 3.2
2015-Jun-27 04:33N 54°53' W 005°43'1918.8
2015-Jun-27 03:33N 55°01' W 005°14'8 8.1
2015-Jun-27 02:33N 54°58' W 005°01'0 0.0
2015-Jun-27 01:33N 54°58' W 005°01'5 4.6
2015-Jun-27 00:22N 55°02' W 005°08'1619.5
2015-Jun-26 23:33N 54°55' W 005°33'10 9.6
2015-Jun-26 22:33N 54°51' W 005°48'0 0.0
2015-Jun-26 21:32N 54°51' W 005°48'2 2.0
2015-Jun-26 20:34N 54°53' W 005°46'1918.8
2015-Jun-26 19:33N 55°00' W 005°16'9 7.5
2015-Jun-26 18:21N 54°58' W 005°01'0 0.0
2015-Jun-26 17:33N 54°58' W 005°01'1111.0
2015-Jun-26 16:33N 54°58' W 005°20'1717.4
2015-Jun-26 15:34N 54°51' W 005°48'0 0.1
2015-Jun-26 14:34N 54°51' W 005°48'1716.8
2015-Jun-26 13:33N 54°59' W 005°22'1212.2
2015-Jun-26 12:33N 54°58' W 005°01'0 0.0
2015-Jun-26 11:33N 54°58' W 005°01'1211.2
2015-Jun-26 10:31N 54°58' W 005°21'1717.4
2015-Jun-26 09:33N 54°51' W 005°48'  

Dump ship's entire track history